Time;durP1;ratioP1;P1;durP2;ratioP2;P2;SDS_P1;SDS_P2;PMS_P1;PMS_P2;Temp;Humidity;BMP_temperature;BMP_pressure;BME280_temperature;BME280_humidity;BME280_pressure;Samples;Min_cycle;Max_cycle;Signal;HPM_P1;HPM_P2
2023/03/21 16:11:26;;;;;;;5.07;3.88;;;14.40;99.90;;;;;;5101517;27;20892;-62
2023/03/21 16:13:53;;;;;;;5.80;3.22;;;14.30;99.90;;;;;;5104001;28;20024;-61
2023/03/21 16:16:25;;;;;;;6.82;4.07;;;14.40;99.90;;;;;;5116409;28;20016;-59
2023/03/21 16:18:51;;;;;;;6.68;4.18;;;14.40;99.90;;;;;;5116378;28;20051;-60
2023/03/21 16:21:20;;;;;;;8.18;4.03;;;14.60;99.90;;;;;;5115640;28;20103;-60
2023/03/21 16:23:48;;;;;;;7.40;4.10;;;14.70;99.90;;;;;;5129905;28;20097;-63
2023/03/21 16:26:16;;;;;;;6.60;3.88;;;14.80;99.90;;;;;;5128886;28;20015;-62
2023/03/21 16:28:43;;;;;;;9.68;3.95;;;14.80;99.90;;;;;;5117222;28;20027;-60
2023/03/21 16:31:18;;;;;;;7.40;4.30;;;14.90;99.90;;;;;;5107401;28;20466;-58
2023/03/21 16:33:44;;;;;;;8.20;3.85;;;14.80;99.90;;;;;;5108613;28;20103;-62
2023/03/21 16:36:18;;;;;;;7.30;3.90;;;14.80;99.90;;;;;;5108383;28;20407;-61
2023/03/21 16:38:45;;;;;;;7.32;3.78;;;14.80;99.90;;;;;;5118085;28;20012;-62
2023/03/21 16:41:13;;;;;;;7.22;3.58;;;14.80;99.90;;;;;;5107754;28;20024;-60
2023/03/21 16:43:41;;;;;;;7.03;3.80;;;14.90;99.90;;;;;;5105476;28;20016;-59
2023/03/21 16:46:15;;;;;;;7.20;3.47;;;14.90;99.90;;;;;;5108454;28;20077;-59
2023/03/21 16:48:42;;;;;;;6.90;3.38;;;14.90;99.90;;;;;;5115778;28;20100;-61
2023/03/21 16:51:16;;;;;;;6.03;3.92;;;14.80;99.90;;;;;;5105635;28;20081;-58
2023/03/21 16:53:44;;;;;;;7.85;3.80;;;14.70;99.90;;;;;;5106580;28;20387;-58
2023/03/21 16:56:16;;;;;;;6.68;3.53;;;14.70;99.90;;;;;;5109037;28;20032;-59
2023/03/21 16:58:42;;;;;;;6.95;3.63;;;14.60;99.90;;;;;;5115766;27;20437;-59
2023/03/21 17:01:20;;;;;;;6.15;3.42;;;14.60;99.90;;;;;;5105516;28;20028;-59
2023/03/21 17:03:47;;;;;;;9.00;3.65;;;14.50;99.90;;;;;;5098571;28;20454;-59
2023/03/21 17:06:18;;;;;;;5.13;3.10;;;14.50;99.90;;;;;;5119804;28;20356;-58
2023/03/21 17:08:44;;;;;;;7.57;3.67;;;14.40;99.90;;;;;;5105645;28;20031;-58
2023/03/21 17:11:15;;;;;;;7.18;3.65;;;14.40;99.90;;;;;;5105045;28;20484;-58
2023/03/21 17:13:43;;;;;;;7.68;4.07;;;14.40;99.90;;;;;;5105396;28;20028;-59
2023/03/21 17:16:13;;;;;;;8.43;4.68;;;14.20;99.90;;;;;;5104378;28;20023;-59
2023/03/21 17:18:40;;;;;;;6.45;3.88;;;14.10;99.90;;;;;;5113499;28;20027;-59
2023/03/21 17:21:15;;;;;;;10.38;4.57;;;13.90;99.90;;;;;;5101154;28;20013;-59
2023/03/21 17:23:41;;;;;;;7.32;4.75;;;13.80;99.90;;;;;;5091995;28;20032;-57
2023/03/21 17:26:10;;;;;;;8.90;4.80;;;13.60;99.90;;;;;;5104881;28;20070;-59
2023/03/21 17:28:36;;;;;;;7.50;4.95;;;13.50;99.90;;;;;;5111683;28;20026;-59
2023/03/21 17:31:03;;;;;;;8.70;4.30;;;13.40;99.90;;;;;;5103147;28;20040;-58
2023/03/21 17:33:29;;;;;;;8.48;4.35;;;13.30;99.90;;;;;;5083734;28;20419;-58
2023/03/21 17:35:55;;;;;;;7.65;4.60;;;13.30;99.90;;;;;;5091521;28;20081;-57
2023/03/21 17:38:21;;;;;;;7.35;4.28;;;13.20;99.90;;;;;;5100263;28;20031;-58
2023/03/21 17:40:47;;;;;;;8.50;4.57;;;13.30;99.90;;;;;;5112397;28;20032;-58
2023/03/21 17:43:16;;;;;;;9.80;5.30;;;13.20;99.90;;;;;;5111482;28;20693;-58
2023/03/21 17:45:42;;;;;;;8.32;4.45;;;13.30;99.90;;;;;;5096781;28;20396;-58
2023/03/21 17:48:08;;;;;;;7.97;4.72;;;13.20;99.90;;;;;;5088915;28;20023;-59
2023/03/21 17:50:35;;;;;;;8.52;4.50;;;13.20;99.90;;;;;;5091344;28;20508;-59
2023/03/21 17:53:02;;;;;;;9.77;5.18;;;13.20;99.90;;;;;;5090901;28;20026;-59
2023/03/21 17:55:28;;;;;;;8.63;5.00;;;13.20;99.90;;;;;;5091541;28;20081;-60
2023/03/21 17:57:54;;;;;;;9.27;5.40;;;13.20;99.90;;;;;;5091004;28;20111;-58
2023/03/21 18:00:23;;;;;;;9.88;5.35;;;13.10;99.90;;;;;;5108605;28;20123;-58
2023/03/21 18:02:49;;;;;;;6.18;4.40;;;13.00;99.90;;;;;;5111246;28;20026;-58
2023/03/21 18:05:15;;;;;;;7.55;4.38;;;12.90;99.90;;;;;;5105974;28;20040;-59
2023/03/21 18:07:42;;;;;;;7.82;4.53;;;12.90;99.90;;;;;;5090668;28;20032;-59
2023/03/21 18:10:14;;;;;;;7.43;4.35;;;12.90;99.90;;;;;;5090936;28;20063;-56
2023/03/21 18:12:40;;;;;;;8.48;5.05;;;12.80;99.90;;;;;;5088740;28;20016;-59
2023/03/21 18:15:08;;;;;;;9.18;4.53;;;12.70;99.90;;;;;;5090653;28;20031;-59
2023/03/21 18:17:34;;;;;;;7.38;4.30;;;12.60;99.90;;;;;;5091329;28;20012;-59
2023/03/21 18:19:59;;;;;;;6.85;4.43;;;12.50;99.90;;;;;;5101087;28;20421;-59
2023/03/21 18:22:26;;;;;;;7.25;4.45;;;12.40;99.90;;;;;;5101376;28;20020;-60
2023/03/21 18:24:52;;;;;;;6.97;4.30;;;12.30;99.90;;;;;;5093375;28;20496;-59
2023/03/21 18:27:18;;;;;;;9.23;4.40;;;12.20;99.90;;;;;;5092625;28;20432;-60
2023/03/21 18:29:44;;;;;;;9.18;4.80;;;12.20;99.90;;;;;;5092423;28;20036;-60
2023/03/21 18:32:10;;;;;;;7.55;4.88;;;12.10;99.90;;;;;;5092569;28;20020;-62
2023/03/21 18:34:38;;;;;;;8.02;5.15;;;12.00;99.90;;;;;;5078176;28;20031;-59
2023/03/21 18:37:05;;;;;;;6.45;5.00;;;12.00;99.90;;;;;;5082439;28;20028;-59
2023/03/21 18:39:32;;;;;;;8.50;5.00;;;11.90;99.90;;;;;;5102225;28;20055;-59
2023/03/21 18:42:00;;;;;;;7.70;4.35;;;11.80;99.90;;;;;;5092460;28;20108;-61
2023/03/21 18:44:28;;;;;;;8.45;5.07;;;11.70;99.90;;;;;;5092248;28;20032;-59
2023/03/21 18:46:54;;;;;;;10.30;5.82;;;11.70;99.90;;;;;;5093131;28;20027;-59
2023/03/21 18:49:20;;;;;;;10.65;5.50;;;11.70;99.90;;;;;;5091670;28;20028;-58
2023/03/21 18:51:46;;;;;;;8.25;5.40;;;11.60;99.90;;;;;;5092512;28;20392;-59
2023/03/21 18:54:12;;;;;;;9.15;5.38;;;11.60;99.90;;;;;;5095436;28;20024;-60
2023/03/21 18:56:38;;;;;;;8.52;4.60;;;11.60;99.90;;;;;;5100982;28;20031;-59
2023/03/21 18:59:04;;;;;;;7.15;4.72;;;11.60;99.90;;;;;;5091179;28;20016;-59
2023/03/21 19:01:31;;;;;;;6.50;4.65;;;11.60;99.90;;;;;;5092192;28;20017;-58
2023/03/21 19:03:59;;;;;;;7.65;4.82;;;11.60;99.90;;;;;;5096013;28;20647;-59
2023/03/21 19:06:28;;;;;;;7.28;4.70;;;11.60;99.90;;;;;;5111351;28;20026;-58
2023/03/21 19:08:54;;;;;;;6.80;4.82;;;11.60;99.90;;;;;;5112775;28;20051;-60
2023/03/21 19:11:20;;;;;;;7.47;4.43;;;11.60;99.90;;;;;;5112203;28;20449;-61
2023/03/21 19:13:51;;;;;;;7.80;4.88;;;11.60;99.90;;;;;;5112690;28;20020;-59
2023/03/21 19:16:18;;;;;;;7.40;4.72;;;11.50;99.90;;;;;;5109304;28;20028;-59
2023/03/21 19:18:43;;;;;;;9.25;5.10;;;11.60;99.90;;;;;;5091017;28;20016;-59
2023/03/21 19:21:09;;;;;;;9.05;5.32;;;11.60;99.90;;;;;;5091775;28;20020;-59
2023/03/21 19:23:35;;;;;;;7.20;4.50;;;11.60;99.90;;;;;;5098469;28;20067;-59
2023/03/21 19:26:01;;;;;;;6.22;3.90;;;11.60;99.90;;;;;;5091452;28;20085;-59
2023/03/21 19:28:27;;;;;;;7.40;4.20;;;11.50;99.90;;;;;;5091492;28;20468;-60
2023/03/21 19:30:54;;;;;;;8.60;4.97;;;11.50;99.90;;;;;;5091286;28;20039;-59
2023/03/21 19:33:20;;;;;;;6.90;4.30;;;11.50;99.90;;;;;;5090120;28;20107;-59
2023/03/21 19:35:48;;;;;;;6.65;4.13;;;11.50;99.90;;;;;;5092053;28;20028;-59
2023/03/21 19:38:14;;;;;;;7.88;5.22;;;11.50;99.90;;;;;;5091182;28;20024;-59
2023/03/21 19:40:40;;;;;;;8.50;4.40;;;11.50;99.90;;;;;;5091873;28;20081;-59
2023/03/21 19:43:07;;;;;;;6.15;4.00;;;11.50;99.90;;;;;;5092077;28;20020;-59
2023/03/21 19:45:33;;;;;;;8.30;4.80;;;11.50;99.90;;;;;;5091264;28;20024;-59
2023/03/21 19:47:58;;;;;;;7.45;4.30;;;11.60;99.90;;;;;;5092212;28;20028;-59
2023/03/21 19:50:28;;;;;;;8.50;4.60;;;11.60;99.90;;;;;;5090209;28;20503;-59
2023/03/21 19:52:57;;;;;;;6.75;4.10;;;11.60;99.90;;;;;;5091359;28;20090;-59
2023/03/21 19:55:24;;;;;;;6.57;4.38;;;11.60;99.90;;;;;;5091683;28;20031;-59
2023/03/21 19:57:51;;;;;;;8.05;4.68;;;11.70;99.90;;;;;;5090600;28;20020;-59
2023/03/21 20:00:17;;;;;;;7.10;4.45;;;11.70;99.90;;;;;;5090915;28;20380;-59
2023/03/21 20:02:44;;;;;;;8.07;4.70;;;11.70;99.90;;;;;;5092030;28;20013;-60
2023/03/21 20:05:11;;;;;;;8.63;4.55;;;11.60;99.90;;;;;;5091422;28;20039;-59
2023/03/21 20:07:37;;;;;;;7.45;4.82;;;11.70;99.90;;;;;;5091425;28;20020;-59
2023/03/21 20:10:05;;;;;;;9.23;4.97;;;11.80;99.90;;;;;;5091372;28;20097;-60
